createdAt,value
2024-05-09T00:01:58.399Z,99.90
2024-05-09T00:04:30.533Z,99.90
2024-05-09T00:07:02.701Z,99.90
2024-05-09T00:09:34.774Z,99.90
2024-05-09T00:12:07.051Z,99.90
2024-05-09T00:14:39.226Z,99.90
2024-05-09T00:17:11.355Z,99.90
2024-05-09T00:19:44.060Z,99.90
2024-05-09T00:22:16.138Z,99.90
2024-05-09T00:24:48.233Z,99.90
2024-05-09T00:27:20.962Z,99.90
2024-05-09T00:29:53.173Z,99.90
2024-05-09T00:32:25.465Z,99.90
2024-05-09T00:34:57.701Z,99.90
2024-05-09T00:37:29.805Z,99.90
2024-05-09T00:40:01.876Z,99.90
2024-05-09T00:42:38.526Z,99.90
2024-05-09T00:45:10.550Z,99.90
2024-05-09T00:47:45.802Z,99.90
2024-05-09T00:50:22.778Z,99.90
2024-05-09T00:53:02.043Z,99.90
2024-05-09T00:55:35.619Z,99.90
2024-05-09T00:58:10.799Z,99.90
2024-05-09T01:00:44.011Z,99.90
2024-05-09T01:03:16.337Z,99.90
2024-05-09T01:05:48.507Z,99.90
2024-05-09T01:08:21.041Z,99.90
2024-05-09T01:10:53.486Z,99.90
2024-05-09T01:13:25.659Z,99.90
2024-05-09T01:15:58.343Z,99.90
2024-05-09T01:18:30.678Z,99.90
2024-05-09T01:21:04.406Z,99.90
2024-05-09T01:23:36.743Z,99.90
2024-05-09T01:26:08.937Z,99.90
2024-05-09T01:28:41.013Z,99.90
2024-05-09T01:31:15.970Z,99.90
2024-05-09T01:33:48.270Z,99.90
2024-05-09T01:36:20.489Z,99.90
2024-05-09T01:38:52.660Z,99.90
2024-05-09T01:41:25.144Z,99.90
2024-05-09T01:43:57.375Z,99.90
2024-05-09T01:46:29.476Z,99.90
2024-05-09T01:49:01.664Z,99.90
2024-05-09T01:51:33.847Z,99.90
2024-05-09T01:54:06.497Z,99.90
2024-05-09T01:56:38.695Z,99.90
2024-05-09T01:59:10.806Z,99.90
2024-05-09T02:01:56.239Z,99.90
2024-05-09T02:04:30.909Z,99.90
2024-05-09T02:07:03.173Z,99.90
2024-05-09T02:09:35.251Z,99.90
2024-05-09T02:12:07.584Z,99.90
2024-05-09T02:14:39.794Z,99.90
2024-05-09T02:17:11.954Z,99.90
2024-05-09T02:19:44.100Z,99.90
2024-05-09T02:22:16.322Z,99.90
2024-05-09T02:24:48.352Z,99.90
2024-05-09T02:27:20.407Z,99.90
2024-05-09T02:29:52.515Z,99.90
2024-05-09T02:32:24.790Z,99.90
2024-05-09T02:34:56.981Z,99.90
2024-05-09T02:37:29.197Z,99.90
2024-05-09T02:40:01.257Z,99.90
2024-05-09T02:42:33.558Z,99.90
2024-05-09T02:45:05.976Z,99.90
2024-05-09T02:47:38.263Z,99.90
2024-05-09T02:50:13.340Z,99.90
2024-05-09T02:52:48.205Z,99.90
2024-05-09T02:55:20.300Z,99.90
2024-05-09T02:57:52.384Z,99.90
2024-05-09T03:00:34.162Z,99.90
2024-05-09T03:03:14.038Z,99.90
2024-05-09T03:05:47.808Z,99.90
2024-05-09T03:08:20.106Z,99.90
2024-05-09T03:10:52.277Z,99.90
2024-05-09T03:13:24.499Z,99.90
2024-05-09T03:15:56.524Z,99.90
2024-05-09T03:18:28.902Z,99.90
2024-05-09T03:21:01.248Z,99.90
2024-05-09T03:23:33.652Z,99.90
2024-05-09T03:26:13.662Z,99.90
2024-05-09T03:28:46.120Z,99.90
2024-05-09T03:31:18.910Z,99.90
2024-05-09T03:33:51.177Z,99.90
2024-05-09T03:36:23.418Z,99.90
2024-05-09T03:38:55.599Z,99.90
2024-05-09T03:41:27.792Z,99.90
2024-05-09T03:43:59.992Z,99.90
2024-05-09T03:46:32.075Z,99.90
2024-05-09T03:49:04.356Z,99.90
2024-05-09T03:51:36.494Z,99.90
2024-05-09T03:54:08.627Z,99.90
2024-05-09T03:56:40.736Z,99.90
2024-05-09T03:59:12.969Z,99.90
2024-05-09T04:01:45.369Z,99.90
2024-05-09T04:04:17.542Z,99.90
2024-05-09T04:06:49.652Z,99.90
2024-05-09T04:09:21.863Z,99.90
2024-05-09T04:11:54.096Z,99.90
2024-05-09T04:14:26.414Z,99.90
2024-05-09T04:16:58.608Z,99.90
2024-05-09T04:19:30.754Z,99.90
2024-05-09T04:22:02.915Z,99.90
2024-05-09T04:24:34.978Z,99.90
2024-05-09T04:27:07.099Z,99.90
2024-05-09T04:29:40.571Z,99.90
2024-05-09T04:32:12.856Z,99.90
2024-05-09T04:34:45.119Z,99.90
2024-05-09T04:37:17.581Z,99.90
2024-05-09T04:39:49.747Z,99.90
2024-05-09T04:42:21.785Z,99.90
2024-05-09T04:44:56.424Z,99.90
2024-05-09T04:47:30.623Z,99.90
2024-05-09T04:50:03.520Z,99.90
2024-05-09T04:52:35.717Z,99.90
2024-05-09T04:55:07.881Z,99.90
2024-05-09T04:57:40.051Z,99.90
2024-05-09T05:00:14.946Z,99.90
2024-05-09T05:02:54.030Z,99.90
2024-05-09T05:05:26.220Z,99.90
2024-05-09T05:07:58.408Z,99.90
2024-05-09T05:10:35.793Z,99.90
2024-05-09T05:13:25.230Z,99.90
2024-05-09T05:15:58.358Z,99.90
2024-05-09T05:18:30.995Z,99.90
2024-05-09T05:21:03.098Z,99.90
2024-05-09T05:23:36.346Z,99.90
2024-05-09T05:26:08.571Z,99.90
2024-05-09T05:28:40.763Z,99.90
2024-05-09T05:31:13.025Z,99.90
2024-05-09T05:33:45.246Z,99.90
2024-05-09T05:36:17.438Z,99.90
2024-05-09T05:38:49.663Z,99.90
2024-05-09T05:41:21.871Z,99.90
2024-05-09T05:43:54.065Z,99.90
2024-05-09T05:46:26.114Z,99.90
2024-05-09T05:48:58.290Z,99.90
2024-05-09T05:51:30.423Z,99.90
2024-05-09T05:54:02.544Z,99.90
2024-05-09T05:56:34.682Z,99.90
2024-05-09T05:59:06.903Z,99.90
2024-05-09T06:01:39.103Z,99.90
2024-05-09T06:04:11.257Z,99.90
2024-05-09T06:06:43.341Z,99.90
2024-05-09T06:09:15.488Z,99.90
2024-05-09T06:11:47.681Z,99.90
2024-05-09T06:14:19.905Z,99.90
2024-05-09T06:16:53.479Z,99.90
2024-05-09T06:19:26.905Z,99.90
2024-05-09T06:21:59.280Z,99.90
2024-05-09T06:24:31.374Z,99.90
2024-05-09T06:27:04.166Z,99.90
2024-05-09T06:29:38.528Z,99.90
2024-05-09T06:32:10.761Z,99.90
2024-05-09T06:34:43.229Z,99.90
2024-05-09T06:37:15.352Z,99.90
2024-05-09T06:39:47.426Z,99.90
2024-05-09T06:42:19.530Z,99.90
2024-05-09T06:44:51.656Z,99.90
2024-05-09T06:47:23.798Z,99.90
2024-05-09T06:49:56.106Z,99.90
2024-05-09T06:52:28.220Z,99.90
2024-05-09T06:55:00.279Z,99.90
2024-05-09T06:57:32.349Z,99.90
2024-05-09T07:00:08.224Z,99.70
2024-05-09T07:02:42.459Z,99.90
2024-05-09T07:05:14.843Z,99.70
2024-05-09T07:07:47.056Z,99.80
2024-05-09T07:10:28.320Z,99.70
2024-05-09T07:13:12.278Z,99.50
2024-05-09T07:15:44.716Z,98.10
2024-05-09T07:18:21.203Z,98.40
2024-05-09T07:20:53.467Z,98.30
2024-05-09T07:23:25.589Z,98.70
2024-05-09T07:25:58.306Z,97.70
2024-05-09T07:28:30.423Z,97.80
2024-05-09T07:31:02.567Z,96.70
2024-05-09T07:33:34.749Z,96.10
2024-05-09T07:36:07.183Z,95.90
2024-05-09T07:38:39.393Z,95.10
2024-05-09T07:41:11.605Z,94.90
2024-05-09T07:43:44.488Z,95.40
2024-05-09T07:47:14.257Z,95.30
2024-05-09T07:54:18.805Z,94.00
2024-05-09T07:56:51.227Z,93.90
2024-05-09T07:59:23.459Z,94.20
2024-05-09T08:01:55.574Z,94.40
2024-05-09T08:04:27.792Z,94.20
2024-05-09T08:06:59.926Z,93.70
2024-05-09T08:09:32.132Z,93.90
2024-05-09T08:12:04.377Z,93.50
2024-05-09T08:14:36.456Z,92.80
2024-05-09T08:17:08.659Z,93.20
2024-05-09T08:19:42.113Z,93.20
2024-05-09T08:22:15.120Z,93.50
2024-05-09T08:24:47.473Z,93.50
2024-05-09T08:27:19.581Z,92.20
2024-05-09T08:29:51.813Z,92.50
2024-05-09T08:32:23.962Z,93.70
2024-05-09T08:35:02.334Z,93.60
2024-05-09T08:37:38.729Z,92.80
2024-05-09T08:40:23.643Z,93.40
2024-05-09T08:43:06.571Z,93.50
2024-05-09T08:45:44.747Z,93.20
2024-05-09T08:48:19.762Z,93.00
2024-05-09T08:50:53.468Z,92.70
2024-05-09T08:53:25.810Z,92.80
2024-05-09T08:56:01.554Z,92.50
2024-05-09T08:58:36.666Z,91.30
2024-05-09T09:01:09.617Z,90.90
2024-05-09T09:03:43.792Z,91.10
2024-05-09T09:06:19.058Z,92.20
2024-05-09T09:08:53.470Z,91.50
2024-05-09T09:11:25.619Z,92.60
2024-05-09T09:13:57.821Z,93.00
2024-05-09T09:16:37.190Z,92.50
2024-05-09T09:19:09.469Z,92.20
2024-05-09T09:21:42.797Z,92.90
2024-05-09T09:24:15.098Z,92.80
2024-05-09T09:26:47.636Z,92.40
2024-05-09T09:29:21.002Z,91.80
2024-05-09T09:32:04.075Z,92.60
2024-05-09T09:34:36.758Z,91.90
2024-05-09T09:37:11.232Z,90.70
2024-05-09T09:39:49.050Z,90.30
2024-05-09T09:42:24.003Z,90.10
2024-05-09T09:45:04.447Z,90.10
2024-05-09T09:47:40.572Z,90.20
2024-05-09T09:50:17.205Z,91.90
2024-05-09T09:52:56.391Z,91.90
2024-05-09T09:55:29.094Z,91.80
2024-05-09T09:58:01.536Z,91.80
2024-05-09T10:00:34.426Z,91.10
2024-05-09T10:03:06.930Z,91.10
2024-05-09T10:05:42.163Z,91.30
2024-05-09T10:08:18.261Z,91.20
2024-05-09T10:10:50.758Z,91.10
2024-05-09T10:13:33.684Z,91.20
2024-05-09T10:16:11.195Z,90.10
2024-05-09T10:18:43.555Z,90.50
2024-05-09T10:21:19.971Z,91.10
2024-05-09T10:24:05.355Z,91.60
2024-05-09T10:26:38.361Z,91.70
2024-05-09T10:29:17.724Z,91.50
2024-05-09T10:31:50.273Z,91.00
2024-05-09T10:34:24.094Z,90.70
2024-05-09T10:36:56.786Z,91.30
2024-05-09T10:39:36.123Z,91.40
2024-05-09T10:42:10.409Z,91.40
2024-05-09T10:44:42.839Z,90.40
2024-05-09T10:47:19.343Z,90.60
2024-05-09T10:49:51.876Z,90.70
2024-05-09T10:52:26.321Z,90.40
2024-05-09T10:55:02.279Z,91.00
2024-05-09T10:57:40.374Z,91.60
2024-05-09T11:00:19.436Z,91.70
2024-05-09T11:02:59.620Z,91.80
2024-05-09T11:05:34.046Z,91.80
2024-05-09T11:08:06.603Z,91.80
2024-05-09T11:10:39.515Z,92.10
2024-05-09T11:13:11.900Z,92.30
2024-05-09T11:15:44.214Z,92.20
2024-05-09T11:18:25.577Z,92.60
2024-05-09T11:20:59.073Z,92.50
2024-05-09T11:23:31.504Z,93.20
2024-05-09T11:26:03.989Z,92.70
2024-05-09T11:28:36.254Z,92.90
2024-05-09T11:31:10.426Z,92.10
2024-05-09T11:33:46.903Z,92.20
2024-05-09T11:36:19.292Z,92.00
2024-05-09T11:38:51.398Z,92.40
2024-05-09T11:41:24.229Z,93.30
2024-05-09T11:43:57.963Z,94.10
2024-05-09T11:46:30.089Z,93.90
2024-05-09T11:49:02.534Z,93.90
2024-05-09T11:51:34.871Z,93.20
2024-05-09T11:54:06.924Z,95.00
2024-05-09T11:56:39.057Z,94.80
2024-05-09T11:59:11.600Z,94.90
2024-05-09T12:01:43.890Z,94.70
2024-05-09T12:04:16.346Z,94.30
2024-05-09T12:06:48.674Z,94.90
2024-05-09T12:09:21.261Z,94.80
2024-05-09T12:11:53.793Z,94.40
2024-05-09T12:14:25.994Z,94.80
2024-05-09T12:17:00.229Z,94.60
2024-05-09T12:19:35.680Z,94.70
2024-05-09T12:22:07.972Z,94.50
2024-05-09T12:24:40.126Z,95.30
2024-05-09T12:27:13.968Z,94.40
2024-05-09T12:29:46.634Z,94.70
2024-05-09T12:32:18.924Z,94.50
2024-05-09T12:34:51.051Z,94.80
2024-05-09T12:37:23.157Z,94.50
2024-05-09T12:39:55.392Z,94.20
2024-05-09T12:42:31.355Z,94.20
2024-05-09T12:45:06.011Z,94.40
2024-05-09T12:47:38.371Z,94.30
2024-05-09T12:50:21.766Z,94.80
2024-05-09T12:52:57.289Z,94.60
2024-05-09T12:55:33.882Z,94.20
2024-05-09T12:58:13.800Z,93.70
2024-05-09T13:00:46.576Z,94.40
2024-05-09T13:03:19.374Z,93.90
2024-05-09T13:05:52.104Z,93.90
2024-05-09T13:08:24.361Z,93.70
2024-05-09T13:10:56.641Z,93.60
2024-05-09T13:13:29.373Z,94.20
2024-05-09T13:16:01.580Z,92.80
2024-05-09T13:18:35.973Z,93.30
2024-05-09T13:21:08.168Z,92.80
2024-05-09T13:23:40.264Z,92.60
2024-05-09T13:26:12.494Z,92.50
2024-05-09T13:28:44.713Z,93.00
2024-05-09T13:31:16.874Z,92.90
2024-05-09T13:33:49.102Z,92.20
2024-05-09T13:36:21.454Z,92.00
2024-05-09T13:38:53.764Z,92.30
2024-05-09T13:41:25.901Z,93.50
2024-05-09T13:43:58.271Z,93.80
2024-05-09T13:46:30.511Z,92.80
2024-05-09T13:49:03.515Z,91.70
2024-05-09T13:51:35.886Z,93.10
2024-05-09T13:54:08.001Z,92.00
2024-05-09T13:56:41.198Z,92.60
2024-05-09T13:59:13.379Z,92.90
2024-05-09T14:01:45.527Z,93.20
2024-05-09T14:04:18.049Z,93.30
2024-05-09T14:06:50.798Z,93.30
2024-05-09T14:09:23.169Z,92.30
2024-05-09T14:11:55.232Z,92.40
2024-05-09T14:14:27.386Z,92.50
2024-05-09T14:17:00.036Z,92.20
2024-05-09T14:19:32.233Z,92.10
2024-05-09T14:22:06.288Z,92.50
2024-05-09T14:24:38.386Z,92.40
2024-05-09T14:27:10.426Z,92.60
2024-05-09T14:29:42.531Z,92.00
2024-05-09T14:32:15.193Z,92.60
2024-05-09T14:34:47.831Z,93.10
2024-05-09T14:37:20.118Z,93.10
2024-05-09T14:39:52.276Z,93.10
2024-05-09T14:42:24.374Z,92.70
2024-05-09T14:44:56.482Z,92.00
2024-05-09T14:47:29.151Z,92.10
2024-05-09T14:50:02.207Z,91.90
2024-05-09T14:52:34.256Z,92.50
2024-05-09T14:55:08.550Z,92.40
2024-05-09T14:57:42.418Z,92.20
2024-05-09T15:00:21.415Z,92.30
2024-05-09T15:03:00.705Z,92.00
2024-05-09T15:05:32.997Z,92.10
2024-05-09T15:08:08.765Z,92.20
2024-05-09T15:10:41.078Z,92.30
2024-05-09T15:13:16.247Z,92.00
2024-05-09T15:15:49.291Z,92.00
2024-05-09T15:18:21.835Z,91.70
2024-05-09T15:20:54.187Z,92.00
2024-05-09T15:23:26.343Z,91.80
2024-05-09T15:25:58.490Z,92.00
2024-05-09T15:28:31.344Z,91.60
2024-05-09T15:31:03.568Z,92.50
2024-05-09T15:33:35.751Z,92.90
2024-05-09T15:36:08.318Z,92.70
2024-05-09T15:38:40.419Z,91.80
2024-05-09T15:41:13.913Z,92.20
2024-05-09T15:43:45.928Z,92.30
2024-05-09T15:46:18.511Z,92.40
2024-05-09T15:48:51.320Z,92.00
2024-05-09T15:51:23.576Z,92.20
2024-05-09T15:53:55.667Z,92.10
2024-05-09T15:56:27.736Z,91.90
2024-05-09T15:59:00.324Z,91.70
2024-05-09T16:01:32.680Z,92.20
2024-05-09T16:04:05.237Z,92.50
2024-05-09T16:06:37.641Z,92.20
2024-05-09T16:09:09.703Z,92.40
2024-05-09T16:11:41.766Z,92.40
2024-05-09T16:14:13.963Z,92.00
2024-05-09T16:16:46.608Z,92.10
2024-05-09T16:19:18.938Z,92.50
2024-05-09T16:21:51.074Z,92.60
2024-05-09T16:24:23.156Z,93.20
2024-05-09T16:26:55.353Z,93.30
2024-05-09T16:29:27.484Z,93.60
2024-05-09T16:31:59.600Z,93.40
2024-05-09T16:34:31.754Z,93.80
2024-05-09T16:37:06.587Z,94.00
2024-05-09T16:39:38.840Z,94.20
2024-05-09T16:42:11.014Z,94.80
2024-05-09T16:44:43.190Z,94.50
2024-05-09T16:47:15.481Z,94.10
2024-05-09T16:49:47.587Z,94.40
2024-05-09T16:52:19.817Z,94.30
2024-05-09T16:54:52.498Z,94.50
2024-05-09T16:57:24.757Z,94.60
2024-05-09T16:59:56.901Z,94.80
2024-05-09T17:02:30.536Z,94.80
2024-05-09T17:05:02.835Z,94.90
2024-05-09T17:07:35.097Z,95.00
2024-05-09T17:10:12.492Z,94.70
2024-05-09T17:12:51.275Z,94.80
2024-05-09T17:15:23.648Z,95.10
2024-05-09T17:17:56.506Z,95.20
2024-05-09T17:20:33.568Z,95.10
2024-05-09T17:23:13.636Z,95.40
2024-05-09T17:25:46.589Z,95.20
2024-05-09T17:28:19.253Z,95.30
2024-05-09T17:30:51.595Z,95.70
2024-05-09T17:33:23.874Z,96.10
2024-05-09T17:35:56.043Z,96.10
2024-05-09T17:38:28.160Z,96.50
2024-05-09T17:41:00.409Z,96.10
2024-05-09T17:43:32.745Z,96.00
2024-05-09T17:46:07.176Z,96.10
2024-05-09T17:48:39.462Z,96.40
2024-05-09T17:51:13.093Z,96.20
2024-05-09T17:53:45.142Z,96.40
2024-05-09T17:56:17.823Z,96.20
2024-05-09T17:58:49.967Z,96.30
2024-05-09T18:01:23.667Z,96.50
2024-05-09T18:03:56.032Z,96.50
2024-05-09T18:06:28.109Z,96.90
2024-05-09T18:09:00.150Z,97.20
2024-05-09T18:11:32.319Z,97.10
2024-05-09T18:14:04.473Z,97.30
2024-05-09T18:16:36.514Z,97.70
2024-05-09T18:19:08.883Z,98.20
2024-05-09T18:21:41.170Z,98.90
2024-05-09T18:24:13.254Z,99.40
2024-05-09T18:26:45.263Z,99.40
2024-05-09T18:29:19.921Z,99.00
2024-05-09T18:31:53.989Z,99.30
2024-05-09T18:34:26.175Z,99.90
2024-05-09T18:37:00.211Z,99.90
2024-05-09T18:39:33.700Z,99.90
2024-05-09T18:42:05.990Z,99.90
2024-05-09T18:44:38.054Z,99.90
2024-05-09T18:47:10.524Z,99.90
2024-05-09T18:49:42.844Z,99.90
2024-05-09T18:52:15.141Z,99.90
2024-05-09T18:54:47.894Z,99.90
2024-05-09T18:57:20.147Z,99.90
2024-05-09T18:59:52.197Z,99.90
2024-05-09T19:02:24.454Z,99.90
2024-05-09T19:04:56.631Z,99.90
2024-05-09T19:07:28.916Z,99.90
2024-05-09T19:10:01.183Z,99.90
2024-05-09T19:12:33.237Z,99.90
2024-05-09T19:15:05.565Z,99.90
2024-05-09T19:17:37.790Z,99.90
2024-05-09T19:20:20.523Z,99.90
2024-05-09T19:23:00.431Z,99.90
2024-05-09T19:25:33.267Z,99.90
2024-05-09T19:28:05.957Z,99.90
2024-05-09T19:30:41.459Z,99.90
2024-05-09T19:33:15.228Z,99.90
2024-05-09T19:35:48.442Z,99.90
2024-05-09T19:38:21.049Z,99.90
2024-05-09T19:40:53.393Z,99.90
2024-05-09T19:43:26.010Z,99.90
2024-05-09T19:45:58.240Z,99.90
2024-05-09T19:48:30.388Z,99.90
2024-05-09T19:51:03.336Z,99.90
2024-05-09T19:53:35.529Z,99.90
2024-05-09T19:56:07.758Z,99.90
2024-05-09T19:58:40.159Z,99.90
2024-05-09T20:01:12.434Z,99.90
2024-05-09T20:03:44.823Z,99.90
2024-05-09T20:06:17.235Z,99.90
2024-05-09T20:08:49.335Z,99.90
2024-05-09T20:11:21.509Z,99.90
2024-05-09T20:13:53.647Z,99.90
2024-05-09T20:16:25.723Z,99.90
2024-05-09T20:18:58.391Z,99.90
2024-05-09T20:21:30.531Z,99.90
2024-05-09T20:24:02.645Z,99.90
2024-05-09T20:26:34.719Z,99.90
2024-05-09T20:29:06.800Z,99.90
2024-05-09T20:31:39.041Z,99.90
2024-05-09T20:34:11.262Z,99.90
2024-05-09T20:36:43.434Z,99.90
2024-05-09T20:39:15.642Z,99.90
2024-05-09T20:41:47.809Z,99.90
2024-05-09T20:44:20.039Z,99.90
2024-05-09T20:46:52.112Z,99.90
2024-05-09T20:49:24.439Z,99.90
2024-05-09T20:51:57.860Z,99.90
2024-05-09T20:54:30.069Z,99.90
2024-05-09T20:57:03.087Z,99.90
2024-05-09T20:59:35.432Z,99.90
2024-05-09T21:02:07.669Z,99.90
2024-05-09T21:04:40.076Z,99.90
2024-05-09T21:07:12.396Z,99.90
2024-05-09T21:09:44.637Z,99.90
2024-05-09T21:12:17.966Z,99.90
2024-05-09T21:14:50.091Z,99.90
2024-05-09T21:17:22.237Z,99.90
2024-05-09T21:19:54.457Z,99.90
2024-05-09T21:22:26.674Z,99.90
2024-05-09T21:24:58.810Z,99.90
2024-05-09T21:27:31.044Z,99.90
2024-05-09T21:30:04.494Z,99.90
2024-05-09T21:32:38.113Z,99.90
2024-05-09T21:35:10.311Z,99.90
2024-05-09T21:37:42.397Z,99.90
2024-05-09T21:40:24.260Z,99.90
2024-05-09T21:43:04.579Z,99.90
2024-05-09T21:45:37.378Z,99.90
2024-05-09T21:48:13.245Z,99.90
2024-05-09T21:50:45.444Z,99.90
2024-05-09T21:53:18.460Z,99.90
2024-05-09T21:55:50.636Z,99.90
2024-05-09T21:58:23.716Z,99.90
2024-05-09T22:00:55.925Z,99.90
2024-05-09T22:03:28.281Z,99.90
2024-05-09T22:06:00.905Z,99.90
2024-05-09T22:08:36.088Z,99.90
2024-05-09T22:11:08.446Z,99.90
2024-05-09T22:13:40.675Z,99.90
2024-05-09T22:16:12.881Z,99.90
2024-05-09T22:18:45.147Z,99.90
2024-05-09T22:21:17.285Z,99.90
2024-05-09T22:23:49.324Z,99.90
2024-05-09T22:26:21.411Z,99.90
2024-05-09T22:28:53.593Z,99.90
2024-05-09T22:31:25.745Z,99.90
2024-05-09T22:33:58.124Z,99.90
2024-05-09T22:36:30.259Z,99.90
2024-05-09T22:39:02.881Z,99.90
2024-05-09T22:41:34.971Z,99.90
2024-05-09T22:44:07.074Z,99.90
2024-05-09T22:46:39.198Z,99.90
2024-05-09T22:49:11.511Z,99.90
2024-05-09T22:51:43.685Z,99.90
2024-05-09T22:54:15.771Z,99.90
2024-05-09T22:56:47.861Z,99.90
2024-05-09T22:59:19.964Z,99.90
2024-05-09T23:01:52.042Z,99.90
2024-05-09T23:04:24.263Z,99.90
2024-05-09T23:06:56.406Z,99.90
2024-05-09T23:09:28.532Z,99.90
2024-05-09T23:12:00.681Z,99.90
2024-05-09T23:14:33.465Z,99.90
2024-05-09T23:17:12.085Z,99.90
2024-05-09T23:19:44.273Z,99.90
2024-05-09T23:22:16.466Z,99.90
2024-05-09T23:24:48.658Z,99.90
2024-05-09T23:27:20.911Z,99.90
2024-05-09T23:29:53.468Z,99.90
2024-05-09T23:32:25.640Z,99.90
2024-05-09T23:34:57.862Z,99.90
2024-05-09T23:37:30.100Z,99.90
2024-05-09T23:40:03.807Z,99.90
2024-05-09T23:42:41.950Z,99.90
2024-05-09T23:45:14.171Z,99.90
2024-05-09T23:47:46.971Z,99.90
2024-05-09T23:50:26.333Z,99.90
2024-05-09T23:53:06.128Z,99.90
2024-05-09T23:55:39.479Z,99.90
2024-05-09T23:58:12.022Z,99.90
